createdAt,value
2024-03-05T00:01:38.359Z,45.72
2024-03-05T00:04:06.412Z,43.97
2024-03-05T00:06:34.181Z,45.58
2024-03-05T00:09:01.447Z,45.72
2024-03-05T00:11:28.571Z,45.03
2024-03-05T00:13:55.794Z,51.10
2024-03-05T00:16:22.961Z,46.28
2024-03-05T00:18:50.123Z,43.33
2024-03-05T00:21:17.240Z,46.50
2024-03-05T00:23:44.515Z,52.13
2024-03-05T00:26:15.965Z,48.35
2024-03-05T00:28:43.462Z,52.25
2024-03-05T00:31:10.643Z,46.97
2024-03-05T00:33:37.742Z,52.65
2024-03-05T00:36:05.070Z,49.75
2024-03-05T00:38:33.976Z,49.20
2024-03-05T00:41:01.740Z,55.65
2024-03-05T00:43:29.020Z,50.88
2024-03-05T00:45:56.224Z,49.03
2024-03-05T00:48:23.316Z,54.40
2024-03-05T00:50:51.776Z,48.30
2024-03-05T00:53:19.486Z,52.22
2024-03-05T00:55:46.673Z,49.17
2024-03-05T00:58:13.903Z,52.55
2024-03-05T01:00:41.125Z,48.65
2024-03-05T01:03:08.255Z,49.05
2024-03-05T01:05:35.354Z,49.72
2024-03-05T01:08:02.551Z,49.25
2024-03-05T01:10:29.755Z,51.65
2024-03-05T01:12:57.771Z,48.08
2024-03-05T01:15:25.518Z,50.47
2024-03-05T01:17:53.318Z,53.17
2024-03-05T01:20:21.404Z,49.72
2024-03-05T01:22:48.710Z,50.22
2024-03-05T01:25:17.974Z,50.10
2024-03-05T01:27:45.263Z,50.72
2024-03-05T01:30:12.650Z,54.13
2024-03-05T01:32:40.249Z,47.85
2024-03-05T01:35:12.258Z,50.35
2024-03-05T01:37:39.613Z,48.72
2024-03-05T01:40:07.089Z,52.35
2024-03-05T01:42:34.435Z,50.58
2024-03-05T01:45:01.531Z,47.42
2024-03-05T01:47:28.912Z,51.60
2024-03-05T01:49:56.963Z,53.80
2024-03-05T01:52:24.202Z,52.55
2024-03-05T01:54:51.508Z,50.15
2024-03-05T01:57:18.746Z,53.70
2024-03-05T01:59:45.888Z,56.40
2024-03-05T02:02:13.189Z,54.65
2024-03-05T02:04:40.430Z,49.60
2024-03-05T02:07:07.815Z,52.80
2024-03-05T02:09:34.975Z,57.67
2024-03-05T02:12:04.175Z,55.55
2024-03-05T02:14:32.184Z,53.97
2024-03-05T02:17:00.296Z,56.60
2024-03-05T02:19:27.608Z,56.33
2024-03-05T02:21:58.515Z,55.60
2024-03-05T02:24:25.601Z,50.83
2024-03-05T02:26:53.644Z,51.97
2024-03-05T02:29:21.023Z,55.10
2024-03-05T02:31:48.549Z,57.63
2024-03-05T02:34:15.696Z,54.42
2024-03-05T02:36:44.215Z,52.28
2024-03-05T02:39:11.590Z,50.92
2024-03-05T02:41:39.296Z,55.63
2024-03-05T02:44:06.432Z,55.08
2024-03-05T02:46:33.651Z,52.65
2024-03-05T02:49:00.829Z,53.65
2024-03-05T02:51:29.959Z,60.13
2024-03-05T02:53:57.439Z,53.50
2024-03-05T02:56:26.137Z,56.28
2024-03-05T02:58:53.599Z,53.72
2024-03-05T03:01:20.796Z,52.90
2024-03-05T03:03:47.925Z,49.58
2024-03-05T03:06:18.428Z,55.22
2024-03-05T03:08:45.583Z,56.53
2024-03-05T03:11:16.911Z,58.08
2024-03-05T03:13:47.670Z,53.55
2024-03-05T03:16:15.323Z,55.60
2024-03-05T03:18:45.606Z,62.65
2024-03-05T03:21:12.872Z,54.03
2024-03-05T03:23:40.026Z,55.10
2024-03-05T03:26:08.210Z,60.58
2024-03-05T03:28:35.803Z,61.20
2024-03-05T03:31:02.930Z,57.05
2024-03-05T03:33:30.020Z,60.00
2024-03-05T03:35:57.348Z,57.67
2024-03-05T03:38:24.847Z,62.22
2024-03-05T03:40:53.308Z,56.28
2024-03-05T03:43:20.921Z,61.10
2024-03-05T03:45:48.099Z,58.47
2024-03-05T03:48:15.892Z,59.65
2024-03-05T03:50:44.393Z,58.33
2024-03-05T03:53:11.613Z,56.65
2024-03-05T03:55:38.849Z,54.28
2024-03-05T03:58:06.010Z,58.58
2024-03-05T04:00:33.962Z,58.08
2024-03-05T04:03:01.495Z,58.60
2024-03-05T04:05:28.608Z,55.35
2024-03-05T04:07:55.915Z,57.30
2024-03-05T04:10:24.145Z,57.28
2024-03-05T04:12:51.441Z,55.42
2024-03-05T04:15:20.115Z,56.22
2024-03-05T04:17:47.857Z,61.58
2024-03-05T04:20:16.146Z,55.67
2024-03-05T04:22:44.246Z,57.95
2024-03-05T04:25:11.577Z,54.28
2024-03-05T04:27:43.454Z,55.95
2024-03-05T04:30:13.547Z,53.47
2024-03-05T04:32:57.922Z,55.00
2024-03-05T04:35:27.638Z,55.70
2024-03-05T04:37:54.843Z,57.75
2024-03-05T04:40:22.098Z,59.80
2024-03-05T04:42:50.239Z,56.53
2024-03-05T04:45:18.633Z,58.90
2024-03-05T04:47:46.341Z,58.65
2024-03-05T04:50:15.477Z,62.88
2024-03-05T04:52:42.969Z,58.00
2024-03-05T04:55:11.169Z,56.72
2024-03-05T04:57:38.394Z,57.35
2024-03-05T05:00:18.618Z,58.60
2024-03-05T05:02:47.940Z,60.75
2024-03-05T05:05:16.760Z,66.00
2024-03-05T05:07:44.844Z,57.33
2024-03-05T05:10:12.353Z,63.25
2024-03-05T05:12:40.385Z,62.25
2024-03-05T05:15:10.592Z,60.35
2024-03-05T05:17:37.828Z,57.92
2024-03-05T05:20:09.730Z,56.30
2024-03-05T05:22:42.783Z,61.17
2024-03-05T05:25:09.910Z,44.10
2024-03-05T05:27:36.874Z,58.25
2024-03-05T05:30:09.172Z,60.70
2024-03-05T05:32:40.497Z,57.35
2024-03-05T05:35:07.496Z,57.80
2024-03-05T05:37:34.244Z,60.88
2024-03-05T05:40:01.968Z,57.20
2024-03-05T05:42:28.665Z,63.30
2024-03-05T05:44:55.458Z,67.32
2024-03-05T05:47:23.564Z,59.85
2024-03-05T05:49:50.406Z,70.30
2024-03-05T05:52:18.967Z,60.92
2024-03-05T05:54:47.880Z,67.85
2024-03-05T05:57:14.605Z,59.75
2024-03-05T05:59:43.190Z,57.92
2024-03-05T06:02:12.571Z,59.17
2024-03-05T06:04:39.508Z,62.65
2024-03-05T06:07:09.909Z,61.63
2024-03-05T06:09:41.580Z,59.47
2024-03-05T06:12:08.964Z,64.57
2024-03-05T06:14:36.199Z,64.32
2024-03-05T06:17:03.560Z,64.03
2024-03-05T06:19:30.730Z,59.38
2024-03-05T06:21:58.564Z,60.08
2024-03-05T06:24:25.678Z,55.25
2024-03-05T06:26:52.800Z,56.13
2024-03-05T06:29:19.940Z,59.92
2024-03-05T06:31:47.204Z,60.03
2024-03-05T06:34:15.256Z,67.93
2024-03-05T06:36:46.665Z,59.17
2024-03-05T06:39:20.783Z,62.28
2024-03-05T06:41:48.632Z,58.63
2024-03-05T06:44:16.252Z,55.55
2024-03-05T06:46:43.456Z,54.88
2024-03-05T06:49:16.032Z,57.13
2024-03-05T06:51:54.111Z,56.67
2024-03-05T06:54:40.250Z,54.33
2024-03-05T06:57:09.524Z,55.92
2024-03-05T06:59:36.636Z,59.13
2024-03-05T07:02:04.240Z,56.58
2024-03-05T07:04:31.562Z,58.47
2024-03-05T07:06:58.742Z,58.88
2024-03-05T07:09:31.820Z,52.97
2024-03-05T07:11:59.028Z,40.10
2024-03-05T07:14:26.254Z,55.30
2024-03-05T07:16:54.329Z,53.83
2024-03-05T07:19:22.118Z,61.88
2024-03-05T07:21:49.321Z,57.00
2024-03-05T07:24:17.398Z,58.15
2024-03-05T07:26:53.068Z,61.20
2024-03-05T07:29:28.136Z,59.28
2024-03-05T07:31:55.944Z,56.05
2024-03-05T07:34:23.137Z,55.55
2024-03-05T07:36:50.259Z,58.00
2024-03-05T07:39:18.004Z,59.15
2024-03-05T07:41:48.171Z,53.72
2024-03-05T07:44:15.315Z,55.97
2024-03-05T07:46:43.161Z,56.13
2024-03-05T07:49:10.300Z,62.00
2024-03-05T07:51:44.389Z,53.08
2024-03-05T07:54:12.864Z,53.92
2024-03-05T07:56:40.741Z,57.20
2024-03-05T07:59:07.955Z,54.83
2024-03-05T08:01:35.138Z,54.83
2024-03-05T08:04:02.568Z,64.20
2024-03-05T08:06:30.025Z,53.72
2024-03-05T08:08:58.077Z,51.88
2024-03-05T08:11:25.339Z,53.50
2024-03-05T08:13:52.764Z,58.10
2024-03-05T08:16:19.986Z,55.38
2024-03-05T08:18:47.462Z,55.92
2024-03-05T08:21:14.690Z,54.38
2024-03-05T08:23:41.887Z,58.65
2024-03-05T08:26:09.517Z,52.72
2024-03-05T08:28:36.740Z,60.15
2024-03-05T08:31:03.963Z,61.25
2024-03-05T08:33:33.626Z,56.03
2024-03-05T08:36:00.930Z,59.30
2024-03-05T08:38:28.226Z,56.05
2024-03-05T08:40:55.429Z,56.50
2024-03-05T08:43:22.642Z,58.58
2024-03-05T08:45:49.817Z,53.22
2024-03-05T08:48:17.146Z,55.33
2024-03-05T08:50:44.677Z,42.30
2024-03-05T08:53:12.111Z,51.53
2024-03-05T08:55:39.485Z,45.40
2024-03-05T08:58:06.763Z,49.28
2024-03-05T09:00:42.048Z,40.65
2024-03-05T09:03:11.601Z,40.13
2024-03-05T09:05:40.677Z,44.95
2024-03-05T09:08:09.786Z,44.30
2024-03-05T09:10:37.039Z,42.53
2024-03-05T09:13:04.662Z,45.00
2024-03-05T09:15:31.868Z,42.35
2024-03-05T09:17:59.131Z,45.95
2024-03-05T09:20:26.841Z,40.88
2024-03-05T09:22:54.020Z,33.95
2024-03-05T09:25:21.254Z,37.45
2024-03-05T09:27:48.461Z,34.42
2024-03-05T09:30:19.161Z,36.92
2024-03-05T09:32:47.703Z,36.30
2024-03-05T09:35:16.623Z,33.50
2024-03-05T09:37:46.879Z,32.08
2024-03-05T09:40:21.909Z,32.42
2024-03-05T09:42:49.225Z,29.33
2024-03-05T09:45:17.851Z,31.58
2024-03-05T09:47:45.693Z,31.73
2024-03-05T09:50:13.786Z,25.67
2024-03-05T09:52:41.362Z,34.70
2024-03-05T09:55:09.923Z,29.30
2024-03-05T09:57:39.630Z,27.45
2024-03-05T10:00:11.339Z,33.47
2024-03-05T10:02:39.644Z,27.58
2024-03-05T10:05:10.502Z,25.30
2024-03-05T10:07:38.273Z,29.73
2024-03-05T10:10:08.575Z,24.55
2024-03-05T10:12:35.921Z,24.00
2024-03-05T10:15:22.295Z,24.80
2024-03-05T10:17:50.877Z,24.63
2024-03-05T10:20:33.211Z,24.52
2024-03-05T10:23:03.144Z,22.80
2024-03-05T10:25:31.128Z,21.15
2024-03-05T10:27:58.267Z,23.98
2024-03-05T10:30:37.096Z,24.02
2024-03-05T10:33:05.169Z,26.58
2024-03-05T10:35:33.249Z,23.55
2024-03-05T10:38:01.767Z,23.33
2024-03-05T10:40:35.970Z,24.73
2024-03-05T10:43:05.389Z,29.13
2024-03-05T10:45:36.214Z,27.67
2024-03-05T10:48:03.491Z,31.25
2024-03-05T10:50:30.768Z,26.52
2024-03-05T10:52:58.832Z,28.05
2024-03-05T10:55:26.643Z,26.90
2024-03-05T10:58:14.594Z,28.30
2024-03-05T11:00:43.446Z,27.13
2024-03-05T11:03:11.720Z,29.73
2024-03-05T11:05:44.027Z,26.13
2024-03-05T11:08:15.012Z,28.35
2024-03-05T11:10:43.566Z,29.70
2024-03-05T11:13:14.562Z,28.55
2024-03-05T11:15:41.804Z,27.42
2024-03-05T11:18:28.116Z,26.05
2024-03-05T11:20:55.419Z,26.83
2024-03-05T11:23:23.541Z,23.88
2024-03-05T11:25:52.781Z,24.73
2024-03-05T11:28:20.353Z,24.95
2024-03-05T11:30:47.880Z,26.30
2024-03-05T11:35:46.661Z,25.63
2024-03-05T11:38:20.094Z,26.85
2024-03-05T11:40:48.506Z,26.85
2024-03-05T11:43:35.718Z,24.17
2024-03-05T11:46:02.943Z,24.33
2024-03-05T11:48:30.144Z,25.85
2024-03-05T11:50:57.525Z,27.23
2024-03-05T11:53:25.019Z,29.48
2024-03-05T11:55:53.418Z,31.40
2024-03-05T11:58:27.092Z,27.08
2024-03-05T12:01:04.517Z,26.90
2024-03-05T12:03:32.030Z,27.30
2024-03-05T12:05:59.206Z,29.02
2024-03-05T12:08:26.369Z,31.25
2024-03-05T12:11:02.133Z,26.67
2024-03-05T12:13:32.434Z,28.15
2024-03-05T12:16:11.243Z,29.58
2024-03-05T12:18:39.460Z,29.73
2024-03-05T12:21:09.980Z,27.95
2024-03-05T12:23:41.885Z,28.40
2024-03-05T12:26:10.724Z,26.73
2024-03-05T12:28:38.103Z,27.10
2024-03-05T12:31:05.413Z,28.10
2024-03-05T12:33:32.621Z,27.95
2024-03-05T12:36:02.171Z,29.25
2024-03-05T12:38:35.925Z,27.13
2024-03-05T12:41:03.434Z,26.92
2024-03-05T12:43:31.517Z,29.80
2024-03-05T12:46:03.738Z,30.15
2024-03-05T12:48:36.023Z,29.27
2024-03-05T12:51:04.497Z,30.08
2024-03-05T12:53:32.019Z,28.80
2024-03-05T12:56:03.033Z,27.30
2024-03-05T12:58:40.312Z,27.48
2024-03-05T13:01:07.791Z,29.85
2024-03-05T13:03:35.191Z,28.50
2024-03-05T13:06:02.495Z,33.88
2024-03-05T13:08:29.686Z,27.88
2024-03-05T13:10:56.907Z,26.92
2024-03-05T13:13:25.170Z,25.35
2024-03-05T13:15:53.072Z,26.83
2024-03-05T13:18:20.490Z,25.25
2024-03-05T13:20:47.636Z,30.92
2024-03-05T13:23:14.789Z,26.58
2024-03-05T13:25:41.999Z,25.10
2024-03-05T13:28:09.149Z,27.63
2024-03-05T13:30:36.999Z,24.83
2024-03-05T13:33:05.823Z,25.73
2024-03-05T13:35:33.113Z,24.50
2024-03-05T13:38:01.052Z,31.42
2024-03-05T13:40:28.278Z,26.33
2024-03-05T13:42:55.891Z,23.00
2024-03-05T13:45:23.269Z,23.75
2024-03-05T13:47:50.489Z,23.70
2024-03-05T13:50:19.141Z,25.48
2024-03-05T13:52:52.994Z,23.08
2024-03-05T13:55:26.868Z,22.20
2024-03-05T13:57:54.121Z,21.52
2024-03-05T14:00:21.892Z,22.25
2024-03-05T14:02:49.840Z,24.42
2024-03-05T14:05:17.328Z,23.35
2024-03-05T14:07:45.478Z,24.60
2024-03-05T14:10:13.326Z,25.02
2024-03-05T14:12:41.376Z,22.50
2024-03-05T14:15:21.414Z,24.58
2024-03-05T14:17:49.464Z,22.70
2024-03-05T14:20:21.029Z,21.45
2024-03-05T14:22:48.378Z,24.95
2024-03-05T14:25:18.525Z,23.17
2024-03-05T14:27:48.791Z,22.63
2024-03-05T14:30:19.450Z,23.10
2024-03-05T14:32:47.542Z,22.50
2024-03-05T14:35:15.287Z,21.67
2024-03-05T14:37:43.552Z,25.92
2024-03-05T14:40:11.567Z,23.35
2024-03-05T14:42:39.319Z,24.10
2024-03-05T14:45:06.819Z,23.50
2024-03-05T14:47:34.171Z,23.13
2024-03-05T14:50:01.628Z,20.58
2024-03-05T14:52:28.853Z,20.35
2024-03-05T14:54:57.915Z,19.27
2024-03-05T14:57:25.077Z,19.92
2024-03-05T14:59:51.832Z,21.50
2024-03-05T15:02:18.812Z,23.20
2024-03-05T15:04:45.741Z,18.23
2024-03-05T15:07:12.891Z,20.25
2024-03-05T15:09:40.084Z,21.98
2024-03-05T15:12:10.767Z,23.50
2024-03-05T15:14:43.415Z,20.77
2024-03-05T15:17:10.758Z,19.83
2024-03-05T15:19:37.764Z,22.38
2024-03-05T15:22:04.758Z,18.38
2024-03-05T15:24:31.488Z,19.30
2024-03-05T15:27:05.074Z,19.92
2024-03-05T15:29:33.795Z,19.08
2024-03-05T15:32:02.074Z,16.58
2024-03-05T15:34:29.654Z,17.25
2024-03-05T15:36:56.935Z,20.38
2024-03-05T15:39:24.062Z,19.90
2024-03-05T15:41:51.048Z,18.80
2024-03-05T15:44:19.496Z,21.10
2024-03-05T15:46:46.567Z,18.35
2024-03-05T15:49:13.479Z,17.25
2024-03-05T15:51:40.357Z,20.23
2024-03-05T15:54:07.057Z,17.25
2024-03-05T15:56:46.702Z,18.17
2024-03-05T15:59:33.479Z,19.15
2024-03-05T16:02:00.806Z,18.10
2024-03-05T16:06:58.275Z,20.25
2024-03-05T16:09:25.688Z,19.27
2024-03-05T16:11:53.385Z,17.15
2024-03-05T16:14:21.327Z,17.80
2024-03-05T16:16:48.668Z,17.02
2024-03-05T16:19:15.880Z,17.00
2024-03-05T16:21:43.148Z,18.42
2024-03-05T16:24:10.262Z,18.90
2024-03-05T16:26:37.525Z,17.90
2024-03-05T16:29:05.349Z,17.55
2024-03-05T16:31:33.834Z,17.98
2024-03-05T16:34:02.420Z,20.17
2024-03-05T16:36:29.804Z,21.15
2024-03-05T16:38:57.102Z,20.48
2024-03-05T16:41:24.274Z,22.17
2024-03-05T16:43:51.699Z,22.60
2024-03-05T16:46:19.230Z,24.08
2024-03-05T16:48:48.206Z,21.70
2024-03-05T16:51:15.692Z,22.40
2024-03-05T16:53:43.050Z,20.10
2024-03-05T16:56:10.313Z,20.33
2024-03-05T16:58:39.681Z,21.27
2024-03-05T17:01:09.475Z,19.02
2024-03-05T17:03:37.114Z,17.60
2024-03-05T17:06:08.898Z,20.25
2024-03-05T17:08:36.048Z,18.42
2024-03-05T17:11:10.764Z,19.77
2024-03-05T17:13:42.474Z,16.95
2024-03-05T17:16:12.800Z,17.08
2024-03-05T17:18:40.286Z,17.83
2024-03-05T17:21:08.368Z,16.67
2024-03-05T17:23:42.016Z,14.10
2024-03-05T17:26:11.128Z,14.80
2024-03-05T17:28:38.540Z,15.45
2024-03-05T17:31:07.133Z,18.73
2024-03-05T17:33:35.535Z,14.10
2024-03-05T17:36:03.565Z,15.38
2024-03-05T17:38:33.165Z,16.00
2024-03-05T17:41:02.157Z,14.50
2024-03-05T17:43:30.784Z,11.50
2024-03-05T17:45:58.302Z,15.52
2024-03-05T17:48:25.531Z,15.45
2024-03-05T17:50:53.389Z,14.82
2024-03-05T17:53:21.727Z,13.35
2024-03-05T17:55:49.851Z,15.32
2024-03-05T17:58:19.822Z,18.67
2024-03-05T18:00:48.294Z,16.42
2024-03-05T18:03:16.059Z,16.45
2024-03-05T18:05:46.978Z,17.27
2024-03-05T18:08:14.727Z,27.20
2024-03-05T18:10:42.802Z,19.08
2024-03-05T18:13:10.616Z,17.73
2024-03-05T18:15:37.942Z,20.33
2024-03-05T18:18:07.238Z,17.58
2024-03-05T18:20:35.724Z,16.90
2024-03-05T18:23:03.447Z,15.73
2024-03-05T18:25:35.251Z,20.27
2024-03-05T18:28:03.501Z,17.75
2024-03-05T18:30:34.092Z,15.95
2024-03-05T18:33:01.404Z,32.55
2024-03-05T18:35:29.175Z,60.10
2024-03-05T18:37:56.571Z,54.47
2024-03-05T18:40:25.302Z,71.15
2024-03-05T18:42:52.686Z,22.40
2024-03-05T18:45:24.316Z,22.75
2024-03-05T18:47:59.496Z,16.55
2024-03-05T18:50:32.919Z,17.55
2024-03-05T18:53:02.505Z,26.38
2024-03-05T18:55:32.058Z,111.65
2024-03-05T18:57:59.808Z,22.30
2024-03-05T19:00:27.747Z,23.60
2024-03-05T19:02:56.068Z,20.08
2024-03-05T19:05:23.556Z,26.38
2024-03-05T19:07:52.606Z,21.00
2024-03-05T19:10:20.612Z,17.40
2024-03-05T19:12:48.541Z,43.53
2024-03-05T19:15:18.539Z,24.88
2024-03-05T19:17:49.162Z,19.45
2024-03-05T19:20:16.966Z,18.67
2024-03-05T19:22:44.293Z,17.80
2024-03-05T19:25:12.769Z,17.70
2024-03-05T19:27:42.366Z,19.55
2024-03-05T19:30:18.743Z,19.63
2024-03-05T19:32:46.712Z,19.08
2024-03-05T19:35:18.594Z,19.20
2024-03-05T19:37:47.369Z,19.27
2024-03-05T19:40:20.584Z,20.60
2024-03-05T19:42:54.185Z,19.80
2024-03-05T19:45:24.854Z,18.08
2024-03-05T19:47:52.542Z,21.15
2024-03-05T19:50:20.247Z,17.52
2024-03-05T19:52:47.435Z,19.55
2024-03-05T19:55:18.385Z,20.85
2024-03-05T19:57:45.949Z,20.90
2024-03-05T20:00:19.570Z,20.42
2024-03-05T20:05:16.153Z,19.02
2024-03-05T20:07:43.520Z,20.08
2024-03-05T20:10:10.859Z,20.48
2024-03-05T20:12:38.878Z,19.20
2024-03-05T20:15:09.887Z,18.10
2024-03-05T20:17:37.870Z,20.55
2024-03-05T20:20:06.753Z,21.00
2024-03-05T20:22:34.647Z,19.73
2024-03-05T20:25:01.866Z,22.17
2024-03-05T20:27:29.394Z,20.95
2024-03-05T20:30:01.808Z,20.85
2024-03-05T20:32:32.086Z,19.45
2024-03-05T20:35:00.448Z,23.45
2024-03-05T20:37:30.907Z,22.83
2024-03-05T20:39:59.398Z,20.50
2024-03-05T20:42:26.757Z,20.83
2024-03-05T20:44:54.058Z,22.55
2024-03-05T20:47:21.219Z,21.60
2024-03-05T20:49:48.398Z,22.23
2024-03-05T20:52:16.297Z,24.50
2024-03-05T20:54:43.539Z,21.35
2024-03-05T20:57:10.696Z,22.65
2024-03-05T20:59:38.107Z,21.23
2024-03-05T21:02:10.487Z,21.70
2024-03-05T21:04:38.688Z,23.30
2024-03-05T21:07:06.198Z,25.98
2024-03-05T21:09:33.525Z,25.85
2024-03-05T21:12:01.524Z,23.88
2024-03-05T21:14:28.862Z,25.23
2024-03-05T21:16:56.174Z,24.02
2024-03-05T21:19:27.405Z,24.13
2024-03-05T21:21:54.684Z,25.08
2024-03-05T21:24:24.569Z,28.63
2024-03-05T21:29:21.734Z,26.63
2024-03-05T21:31:48.940Z,23.95
2024-03-05T21:34:16.101Z,26.58
2024-03-05T21:36:44.164Z,28.50
2024-03-05T21:39:14.762Z,26.05
2024-03-05T21:41:42.502Z,27.67
2024-03-05T21:44:10.179Z,28.95
2024-03-05T21:46:37.985Z,26.80
2024-03-05T21:49:06.747Z,27.02
2024-03-05T21:51:34.075Z,29.38
2024-03-05T21:54:01.273Z,29.08
2024-03-05T21:56:28.402Z,26.80
2024-03-05T21:58:55.650Z,28.30
2024-03-05T22:01:23.104Z,29.95
2024-03-05T22:03:50.267Z,27.95
2024-03-05T22:06:23.832Z,27.58
2024-03-05T22:08:52.150Z,29.83
2024-03-05T22:11:19.401Z,28.83
2024-03-05T22:13:47.097Z,29.73
2024-03-05T22:16:14.485Z,27.88
2024-03-05T22:18:41.712Z,28.50
2024-03-05T22:21:09.193Z,30.42
2024-03-05T22:23:36.380Z,30.65
2024-03-05T22:26:03.519Z,27.08
2024-03-05T22:28:31.225Z,27.08
2024-03-05T22:30:59.236Z,29.13
2024-03-05T22:33:26.492Z,30.35
2024-03-05T22:35:53.625Z,30.40
2024-03-05T22:38:21.723Z,28.25
2024-03-05T22:40:49.028Z,27.98
2024-03-05T22:43:16.202Z,30.98
2024-03-05T22:45:43.421Z,30.33
2024-03-05T22:48:10.844Z,29.02
2024-03-05T22:50:38.193Z,32.42
2024-03-05T22:53:05.414Z,32.33
2024-03-05T22:55:32.646Z,29.73
2024-03-05T22:57:59.787Z,32.38
2024-03-05T23:00:35.996Z,33.50
2024-03-05T23:03:06.445Z,33.17
2024-03-05T23:05:33.589Z,33.95
2024-03-05T23:08:01.039Z,33.90
2024-03-05T23:10:29.689Z,33.03
2024-03-05T23:12:57.450Z,33.35
2024-03-05T23:15:25.604Z,35.08
2024-03-05T23:17:52.874Z,36.83
2024-03-05T23:20:20.280Z,32.90
2024-03-05T23:22:51.104Z,33.47
2024-03-05T23:25:19.712Z,36.15
2024-03-05T23:27:47.869Z,37.50
2024-03-05T23:30:17.591Z,35.60
2024-03-05T23:32:45.515Z,40.70
2024-03-05T23:35:13.178Z,35.53
2024-03-05T23:37:40.496Z,36.65
2024-03-05T23:40:08.067Z,38.45
2024-03-05T23:42:35.800Z,37.10
2024-03-05T23:45:04.538Z,39.40
2024-03-05T23:47:32.147Z,37.72
2024-03-05T23:49:59.724Z,35.65
2024-03-05T23:52:29.833Z,38.63
2024-03-05T23:54:59.901Z,38.45
2024-03-05T23:57:29.632Z,1.02
2024-03-05T23:59:56.904Z,3.03
